Time;durP1;ratioP1;P1;durP2;ratioP2;P2;SDS_P1;SDS_P2;PMS_P1;PMS_P2;Temp;Humidity;BMP_temperature;BMP_pressure;BME280_temperature;BME280_humidity;BME280_pressure;Samples;Min_cycle;Max_cycle;Signal;HPM_P1;HPM_P2
2023/07/21 00:05:22;;;;;;;3.53;1.77;;;29.40;81.70;;;;;;11021856;32;20014;-71
2023/07/21 00:11:24;;;;;;;6.68;3.08;;;29.40;82.10;;;;;;11022417;32;20045;-71
2023/07/21 00:17:28;;;;;;;4.32;1.95;;;29.30;81.90;;;;;;11022260;32;20045;-73
2023/07/21 00:23:31;;;;;;;3.37;2.15;;;29.10;82.00;;;;;;11022071;32;20049;-73
2023/07/21 00:29:33;;;;;;;3.00;1.85;;;29.20;81.80;;;;;;11021897;32;20026;-73
2023/07/21 00:35:35;;;;;;;3.25;1.77;;;29.20;82.10;;;;;;11021539;32;20014;-73
2023/07/21 00:41:37;;;;;;;4.45;2.20;;;29.10;82.60;;;;;;11021342;32;20045;-74
2023/07/21 00:47:40;;;;;;;4.32;1.75;;;29.00;82.90;;;;;;11021192;32;20026;-73
2023/07/21 00:53:42;;;;;;;6.05;1.60;;;29.00;82.90;;;;;;11019952;32;20073;-73
2023/07/21 00:59:45;;;;;;;6.00;2.33;;;29.00;82.70;;;;;;11019821;32;20022;-71
2023/07/21 01:05:50;;;;;;;4.37;2.40;;;29.10;82.90;;;;;;11020484;32;20040;-72
2023/07/21 01:11:54;;;;;;;4.82;1.80;;;29.00;82.80;;;;;;11018921;32;20053;-75
2023/07/21 01:17:57;;;;;;;2.92;1.75;;;28.90;82.90;;;;;;11020036;32;20348;-74
2023/07/21 01:24:21;;;;;;;3.20;1.55;;;28.90;82.90;;;;;;11019881;32;20049;-74
2023/07/21 01:30:24;;;;;;;6.35;2.10;;;29.00;82.90;;;;;;11020880;32;20033;-74
2023/07/21 01:36:26;;;;;;;3.50;1.30;;;28.90;82.90;;;;;;11019521;32;20034;-74
2023/07/21 01:42:30;;;;;;;2.85;1.35;;;28.90;82.90;;;;;;11019207;32;20041;-74
2023/07/21 01:48:33;;;;;;;8.38;1.62;;;28.90;82.80;;;;;;11017338;32;20057;-75
2023/07/21 01:54:52;;;;;;;8.10;1.98;;;28.90;83.00;;;;;;11015676;32;20061;-75
2023/07/21 02:00:55;;;;;;;4.97;2.20;;;28.80;83.00;;;;;;11017505;32;20049;-74
2023/07/21 02:06:57;;;;;;;2.90;1.73;;;28.80;83.10;;;;;;11018428;32;20006;-75
2023/07/21 02:12:59;;;;;;;3.22;1.98;;;28.70;83.40;;;;;;11018281;32;20026;-74
2023/07/21 02:19:01;;;;;;;4.87;1.95;;;28.70;83.50;;;;;;11018133;32;20014;-74
2023/07/21 02:25:04;;;;;;;2.35;1.55;;;28.60;83.30;;;;;;11017927;32;20053;-74
2023/07/21 02:31:09;;;;;;;4.20;2.53;;;28.40;83.00;;;;;;11017778;32;20343;-74
2023/07/21 02:37:11;;;;;;;4.05;2.25;;;28.30;83.00;;;;;;11017566;32;20045;-74
2023/07/21 02:43:13;;;;;;;3.65;2.00;;;28.20;83.00;;;;;;10895771;27;20086;-73
2023/07/21 02:49:16;;;;;;;5.03;3.00;;;28.20;83.30;;;;;;10751710;33;20013;-74
2023/07/21 02:55:19;;;;;;;4.35;2.47;;;28.20;83.00;;;;;;10750914;33;20021;-75
2023/07/21 03:01:22;;;;;;;10.35;2.58;;;28.10;83.00;;;;;;10751820;33;20024;-74
2023/07/21 03:07:26;;;;;;;3.50;2.00;;;28.10;82.90;;;;;;10749484;33;20064;-73
2023/07/21 03:13:32;;;;;;;4.62;2.40;;;27.90;81.40;;;;;;10751530;33;20043;-75
2023/07/21 03:19:34;;;;;;;3.12;1.95;;;27.80;81.80;;;;;;10757859;33;20056;-74
2023/07/21 03:25:37;;;;;;;9.23;1.90;;;27.80;82.30;;;;;;10756508;32;20059;-74
2023/07/21 03:31:40;;;;;;;2.70;1.65;;;27.80;82.50;;;;;;10757112;33;20016;-74
2023/07/21 03:37:44;;;;;;;5.32;2.20;;;28.00;82.60;;;;;;10756395;33;20048;-74
2023/07/21 03:43:47;;;;;;;4.25;2.33;;;27.90;82.20;;;;;;10756719;33;20024;-74
2023/07/21 03:49:50;;;;;;;3.85;2.08;;;27.80;82.70;;;;;;10756143;33;20031;-75
2023/07/21 03:55:52;;;;;;;2.92;1.95;;;27.60;83.00;;;;;;10753389;33;20032;-72
2023/07/21 04:01:55;;;;;;;4.35;2.15;;;27.70;83.30;;;;;;10754822;33;20408;-74
2023/07/21 04:07:56;;;;;;;2.60;1.70;;;27.60;83.10;;;;;;10756764;33;20025;-75
2023/07/21 04:13:59;;;;;;;7.45;2.33;;;27.70;83.50;;;;;;10755597;33;20024;-75
2023/07/21 04:20:01;;;;;;;4.00;2.53;;;27.70;83.60;;;;;;10755208;32;20402;-74
2023/07/21 04:26:04;;;;;;;3.60;2.33;;;27.60;83.50;;;;;;10754835;33;20039;-72
2023/07/21 04:32:06;;;;;;;4.25;2.60;;;27.40;83.60;;;;;;10754711;33;20028;-74
2023/07/21 04:38:08;;;;;;;5.18;2.92;;;27.40;83.60;;;;;;10754826;33;20033;-74
2023/07/21 04:44:12;;;;;;;2.85;1.85;;;27.40;83.10;;;;;;10754522;33;20402;-73
2023/07/21 04:50:14;;;;;;;3.75;2.45;;;27.30;83.10;;;;;;10754377;33;20328;-73
2023/07/21 04:56:16;;;;;;;7.00;2.75;;;27.40;83.20;;;;;;10750678;33;20029;-73
2023/07/21 05:02:19;;;;;;;3.50;2.10;;;27.40;83.30;;;;;;10755192;33;20040;-74
2023/07/21 05:08:21;;;;;;;3.83;1.60;;;27.30;82.50;;;;;;10754981;33;20055;-73
2023/07/21 05:14:23;;;;;;;3.83;1.55;;;27.40;83.00;;;;;;10753728;33;20029;-74
2023/07/21 05:20:27;;;;;;;3.60;2.12;;;27.60;82.80;;;;;;10754541;33;20040;-74
2023/07/21 05:26:30;;;;;;;2.60;1.67;;;27.60;82.40;;;;;;10740090;33;20032;-74
2023/07/21 05:32:32;;;;;;;3.97;1.52;;;27.70;82.30;;;;;;10751861;33;20373;-74
2023/07/21 05:38:35;;;;;;;2.80;1.60;;;27.80;82.10;;;;;;10750130;33;20475;-73
2023/07/21 05:44:38;;;;;;;3.33;1.95;;;27.90;82.30;;;;;;10749985;33;20021;-74
2023/07/21 05:50:40;;;;;;;5.93;2.58;;;27.90;81.10;;;;;;10753765;33;20021;-74
2023/07/21 05:56:43;;;;;;;3.70;2.05;;;27.80;82.00;;;;;;10752219;33;20386;-73
2023/07/21 06:02:46;;;;;;;3.53;1.67;;;27.80;81.60;;;;;;10753531;33;20429;-73
2023/07/21 06:08:48;;;;;;;4.62;2.50;;;27.60;80.50;;;;;;10750255;33;20076;-75
2023/07/21 06:14:51;;;;;;;5.40;1.92;;;27.50;80.80;;;;;;10735565;33;20016;-74
2023/07/21 06:20:53;;;;;;;3.40;1.65;;;27.60;80.90;;;;;;10750955;33;20322;-74
2023/07/21 06:26:55;;;;;;;3.70;1.37;;;27.80;81.10;;;;;;10750155;33;20102;-74
2023/07/21 06:32:58;;;;;;;5.05;2.12;;;27.80;81.20;;;;;;10750211;33;20327;-74
2023/07/21 06:39:00;;;;;;;3.97;2.40;;;27.80;81.60;;;;;;10752705;33;20025;-74
2023/07/21 06:45:03;;;;;;;3.95;1.85;;;27.90;81.00;;;;;;10750587;33;20047;-74
2023/07/21 06:51:05;;;;;;;4.00;2.15;;;28.00;80.60;;;;;;10755757;33;20044;-74
2023/07/21 06:57:10;;;;;;;3.67;1.98;;;28.00;81.20;;;;;;10757601;32;20044;-73
2023/07/21 07:03:12;;;;;;;3.03;2.00;;;28.10;80.70;;;;;;10754368;33;20017;-74
2023/07/21 07:09:14;;;;;;;3.60;2.03;;;28.30;79.80;;;;;;10753326;33;20029;-74
2023/07/21 07:15:17;;;;;;;4.18;3.05;;;28.30;79.10;;;;;;10757054;33;20021;-74
2023/07/21 07:21:21;;;;;;;4.10;1.92;;;28.30;79.50;;;;;;10752124;33;20021;-74
2023/07/21 07:27:23;;;;;;;4.93;2.60;;;28.30;79.00;;;;;;10755465;33;20036;-72
2023/07/21 07:33:25;;;;;;;3.28;1.98;;;28.30;79.10;;;;;;10756396;33;20060;-74
2023/07/21 07:39:27;;;;;;;5.43;2.25;;;28.60;79.10;;;;;;10755512;33;20437;-74
2023/07/21 07:45:29;;;;;;;9.13;2.55;;;28.80;78.70;;;;;;10756023;33;20017;-73
2023/07/21 07:51:31;;;;;;;3.45;1.80;;;28.90;79.40;;;;;;10754365;33;20020;-72
2023/07/21 07:57:34;;;;;;;3.67;2.75;;;28.90;79.30;;;;;;10755688;33;20047;-73
2023/07/21 08:03:36;;;;;;;3.70;2.28;;;28.90;78.60;;;;;;10754814;33;20013;-72
2023/07/21 08:09:38;;;;;;;3.67;2.08;;;29.10;79.30;;;;;;10754433;33;20016;-73
2023/07/21 08:15:44;;;;;;;4.20;2.35;;;29.40;78.90;;;;;;10755097;33;20013;-73
2023/07/21 08:21:48;;;;;;;4.93;2.93;;;29.50;79.10;;;;;;10755144;33;20441;-74
2023/07/21 08:27:50;;;;;;;5.05;2.47;;;29.40;79.10;;;;;;10754271;33;20025;-74
2023/07/21 08:33:53;;;;;;;4.00;2.53;;;29.20;79.70;;;;;;10754693;33;20024;-73
2023/07/21 08:39:55;;;;;;;6.75;2.83;;;29.20;78.30;;;;;;10754625;33;20102;-73
2023/07/21 08:46:03;;;;;;;4.10;2.00;;;29.30;78.40;;;;;;10754194;33;20025;-72
2023/07/21 08:52:05;;;;;;;5.10;3.25;;;29.30;77.10;;;;;;10753338;33;20587;-71
2023/07/21 08:58:08;;;;;;;6.03;2.92;;;29.40;78.20;;;;;;10754055;33;20059;-72
2023/07/21 09:04:20;;;;;;;9.18;3.85;;;29.50;77.30;;;;;;10753920;33;20029;-72
2023/07/21 09:10:34;;;;;;;4.43;2.87;;;29.60;77.20;;;;;;10753369;33;20020;-71
2023/07/21 09:16:38;;;;;;;3.80;2.28;;;29.80;76.00;;;;;;10753089;33;20032;-70
2023/07/21 09:22:41;;;;;;;5.85;2.47;;;30.00;75.40;;;;;;10750588;33;20330;-71
2023/07/21 09:28:44;;;;;;;4.57;2.65;;;30.20;77.20;;;;;;10750597;33;20063;-71
2023/07/21 09:34:59;;;;;;;4.85;2.35;;;30.20;76.00;;;;;;10752904;33;20051;-72
2023/07/21 09:41:06;;;;;;;5.00;2.60;;;30.20;75.80;;;;;;10752626;33;20028;-72
2023/07/21 09:47:09;;;;;;;2.53;1.58;;;30.10;75.70;;;;;;10747627;33;20334;-71
2023/07/21 09:53:16;;;;;;;7.93;3.10;;;30.10;76.70;;;;;;10750956;33;20037;-71
2023/07/21 09:59:20;;;;;;;7.55;2.62;;;29.90;76.40;;;;;;10751531;33;20017;-73
2023/07/21 10:05:23;;;;;;;5.57;2.20;;;29.90;76.40;;;;;;10752164;33;20047;-72
2023/07/21 10:11:25;;;;;;;4.47;2.45;;;29.90;76.00;;;;;;10751991;33;20016;-72
2023/07/21 10:17:43;;;;;;;4.25;2.37;;;29.90;76.20;;;;;;10751754;33;20025;-70
2023/07/21 10:23:52;;;;;;;9.90;2.47;;;29.80;75.90;;;;;;10750213;33;20064;-71
2023/07/21 10:30:21;;;;;;;4.55;2.55;;;29.60;75.70;;;;;;10751626;33;20308;-71
2023/07/21 10:36:23;;;;;;;3.05;2.03;;;29.40;76.90;;;;;;10748075;33;20084;-70
2023/07/21 10:42:25;;;;;;;5.97;2.22;;;29.30;77.20;;;;;;10371227;27;12245378;-72
2023/07/21 10:48:27;;;;;;;3.95;2.80;;;29.30;77.10;;;;;;10664225;33;20041;-72
2023/07/21 10:54:30;;;;;;;5.07;2.85;;;29.20;77.10;;;;;;10675564;33;20038;-72
2023/07/21 11:00:48;;;;;;;4.30;2.97;;;29.00;77.00;;;;;;10662851;33;20040;-73
2023/07/21 11:06:55;;;;;;;4.45;2.50;;;29.00;77.50;;;;;;10675749;33;20433;-73
2023/07/21 11:12:59;;;;;;;2.40;1.83;;;28.90;78.00;;;;;;10750144;33;20394;-73
2023/07/21 11:19:03;;;;;;;5.72;2.75;;;28.90;77.50;;;;;;10750255;33;20017;-72
2023/07/21 11:25:12;;;;;;;3.15;1.80;;;28.90;77.40;;;;;;10750287;33;20064;-72
2023/07/21 11:31:15;;;;;;;2.90;1.65;;;29.00;77.40;;;;;;10750198;33;20043;-72
2023/07/21 11:37:18;;;;;;;3.55;2.15;;;29.00;77.40;;;;;;10753364;33;20433;-70
2023/07/21 11:43:20;;;;;;;8.73;1.98;;;28.90;77.10;;;;;;10756128;33;20021;-71
2023/07/21 11:49:28;;;;;;;4.03;2.15;;;28.20;73.50;;;;;;10755992;33;20484;-71
2023/07/21 11:55:30;;;;;;;6.45;2.62;;;26.80;75.40;;;;;;10755735;33;20021;-73
2023/07/21 12:01:32;;;;;;;6.07;2.72;;;25.50;73.10;;;;;;10755570;33;20421;-75
2023/07/21 12:07:34;;;;;;;6.32;2.70;;;24.80;76.00;;;;;;10755670;33;20346;-73
2023/07/21 12:13:36;;;;;;;6.00;3.00;;;24.00;76.20;;;;;;10717593;33;20055;-69
2023/07/21 12:19:39;;;;;;;9.30;3.05;;;23.90;79.80;;;;;;10718668;33;20044;-70
2023/07/21 12:25:41;;;;;;;8.75;3.22;;;24.30;80.70;;;;;;10718563;33;20449;-70
2023/07/21 12:31:43;;;;;;;5.37;2.60;;;24.60;81.40;;;;;;10718219;33;20039;-72
2023/07/21 12:37:45;;;;;;;3.55;1.90;;;25.10;81.20;;;;;;10718294;33;20241;-71
2023/07/21 12:43:47;;;;;;;2.72;1.77;;;25.70;81.90;;;;;;10717841;33;20436;-71
2023/07/21 12:49:49;;;;;;;5.43;1.58;;;26.30;82.20;;;;;;10717861;33;20052;-71
2023/07/21 12:55:52;;;;;;;6.50;2.53;;;26.80;82.00;;;;;;10716488;33;20036;-71
2023/07/21 13:01:54;;;;;;;4.37;2.37;;;27.10;82.00;;;;;;10717609;33;20048;-73
2023/07/21 13:07:56;;;;;;;2.12;1.25;;;27.20;81.90;;;;;;10717482;33;20067;-72
2023/07/21 13:13:58;;;;;;;1.73;1.00;;;27.50;82.30;;;;;;10717242;33;20025;-71
2023/07/21 13:20:00;;;;;;;2.37;1.35;;;27.80;82.70;;;;;;10717059;33;20059;-71
2023/07/21 13:26:02;;;;;;;1.15;0.90;;;27.80;82.40;;;;;;10713141;33;20025;-72
2023/07/21 13:32:05;;;;;;;2.33;0.62;;;27.90;82.50;;;;;;10716520;33;20055;-72
2023/07/21 13:38:07;;;;;;;1.95;0.85;;;28.10;82.90;;;;;;10712761;33;20359;-70
2023/07/21 13:44:09;;;;;;;2.20;0.90;;;28.40;82.60;;;;;;10712726;33;20334;-72
2023/07/21 13:50:11;;;;;;;2.95;1.12;;;28.60;82.00;;;;;;10716504;33;20351;-72
2023/07/21 13:56:14;;;;;;;0.82;0.62;;;28.80;81.30;;;;;;10714914;33;20040;-72
2023/07/21 14:02:16;;;;;;;2.00;0.85;;;28.80;81.50;;;;;;10715351;33;20047;-72
2023/07/21 14:08:19;;;;;;;2.17;0.77;;;29.00;81.50;;;;;;10715040;33;20020;-72
2023/07/21 14:14:21;;;;;;;2.30;0.93;;;28.90;80.90;;;;;;10715590;33;20437;-71
2023/07/21 14:20:23;;;;;;;1.27;1.00;;;28.80;80.40;;;;;;10715434;33;20021;-72
2023/07/21 14:26:26;;;;;;;1.12;0.85;;;28.90;80.10;;;;;;10715414;33;20065;-72
2023/07/21 14:32:30;;;;;;;1.02;0.70;;;29.00;80.00;;;;;;10715135;33;20017;-71
2023/07/21 14:38:35;;;;;;;1.83;0.65;;;29.20;79.60;;;;;;10712857;33;20025;-72
2023/07/21 14:44:36;;;;;;;1.75;1.00;;;29.20;79.90;;;;;;10714431;33;20338;-72
2023/07/21 14:50:39;;;;;;;1.62;0.82;;;29.20;80.20;;;;;;10713701;33;20059;-71
2023/07/21 14:56:41;;;;;;;1.00;0.73;;;29.10;80.80;;;;;;10714640;33;20338;-73
2023/07/21 15:02:43;;;;;;;4.00;1.20;;;29.10;80.60;;;;;;10714649;33;20040;-73
2023/07/21 15:08:45;;;;;;;12.43;1.05;;;29.10;80.40;;;;;;10714074;33;20079;-72
2023/07/21 15:14:47;;;;;;;1.95;1.10;;;29.20;80.40;;;;;;10720642;33;20021;-72
2023/07/21 15:20:51;;;;;;;2.05;0.90;;;29.30;79.40;;;;;;10720439;33;20033;-73
2023/07/21 15:26:53;;;;;;;1.02;0.80;;;29.30;79.10;;;;;;10720240;33;20029;-73
2023/07/21 15:32:55;;;;;;;1.40;0.82;;;29.30;79.40;;;;;;10742311;33;20064;-73
2023/07/21 15:39:01;;;;;;;1.30;0.82;;;29.40;80.10;;;;;;10737349;32;20052;-73
2023/07/21 15:45:03;;;;;;;2.28;0.85;;;29.60;80.10;;;;;;10745032;33;20418;-73
2023/07/21 15:51:05;;;;;;;1.98;0.62;;;29.70;79.50;;;;;;10742473;33;20243;-73
2023/07/21 15:57:07;;;;;;;1.08;0.43;;;29.80;80.00;;;;;;10755698;33;20047;-73
2023/07/21 16:03:09;;;;;;;1.05;0.70;;;29.80;80.20;;;;;;10755500;33;20013;-73
2023/07/21 16:09:12;;;;;;;4.15;0.80;;;29.80;80.20;;;;;;10755409;33;20036;-73
2023/07/21 16:15:14;;;;;;;2.50;1.35;;;29.80;80.00;;;;;;10754214;33;20344;-72
2023/07/21 16:21:17;;;;;;;3.87;0.88;;;29.90;79.30;;;;;;10754594;33;20043;-72
2023/07/21 16:27:21;;;;;;;0.88;0.40;;;29.90;78.80;;;;;;10752766;33;20074;-73
2023/07/21 16:33:23;;;;;;;1.23;0.70;;;29.90;79.00;;;;;;10754601;33;20021;-73
2023/07/21 16:39:25;;;;;;;1.45;0.88;;;30.00;78.90;;;;;;10753725;33;20090;-73
2023/07/21 16:45:27;;;;;;;1.23;0.43;;;30.10;78.40;;;;;;10823458;32;20019;-72
2023/07/21 16:51:30;;;;;;;2.17;0.90;;;30.20;78.10;;;;;;10944039;32;20356;-73
2023/07/21 16:57:32;;;;;;;1.80;0.80;;;30.10;77.70;;;;;;10945083;32;20007;-73
2023/07/21 17:03:34;;;;;;;1.25;0.70;;;30.00;77.70;;;;;;10944904;32;20015;-73
2023/07/21 17:09:36;;;;;;;0.95;0.50;;;29.80;77.60;;;;;;10944814;32;20393;-73
2023/07/21 17:15:40;;;;;;;0.80;0.50;;;29.80;77.60;;;;;;10943081;32;20049;-73
2023/07/21 17:21:42;;;;;;;0.77;0.43;;;29.70;77.90;;;;;;10944326;32;20015;-73
2023/07/21 17:27:44;;;;;;;1.33;0.50;;;29.70;78.10;;;;;;10944139;32;20045;-73
2023/07/21 17:33:46;;;;;;;1.60;0.90;;;29.60;78.00;;;;;;10943038;32;20046;-73
2023/07/21 17:39:48;;;;;;;1.30;0.75;;;29.50;78.40;;;;;;10943625;32;20431;-73
2023/07/21 17:45:53;;;;;;;1.35;0.50;;;29.30;78.70;;;;;;10943362;32;20085;-73
2023/07/21 17:51:55;;;;;;;1.37;0.73;;;29.30;78.40;;;;;;10943306;32;20019;-73
2023/07/21 17:57:57;;;;;;;1.67;0.70;;;29.10;78.50;;;;;;10942924;32;20037;-73
2023/07/21 18:03:59;;;;;;;1.50;0.55;;;29.10;78.80;;;;;;10942657;32;20011;-73
2023/07/21 18:10:01;;;;;;;0.77;0.45;;;29.10;79.20;;;;;;10941229;32;20050;-73
2023/07/21 18:16:04;;;;;;;1.62;0.57;;;28.90;79.60;;;;;;10942375;32;20022;-73
2023/07/21 18:22:06;;;;;;;0.88;0.45;;;28.90;79.80;;;;;;10938725;32;20089;-73
2023/07/21 18:28:08;;;;;;;0.82;0.47;;;28.80;80.00;;;;;;10942480;32;20041;-73
2023/07/21 18:34:10;;;;;;;0.40;0.30;;;28.80;80.00;;;;;;10942204;32;20058;-73
2023/07/21 18:40:15;;;;;;;1.42;0.60;;;28.80;80.20;;;;;;10941953;32;20081;-73
2023/07/21 18:46:18;;;;;;;0.57;0.55;;;28.80;80.20;;;;;;10756773;27;20052;-73
2023/07/21 18:52:31;;;;;;;1.25;0.77;;;28.70;80.00;;;;;;10751041;33;20025;-73
2023/07/21 18:58:33;;;;;;;0.75;0.50;;;28.60;80.80;;;;;;10750995;33;20040;-73
2023/07/21 19:04:35;;;;;;;1.25;0.60;;;28.50;81.60;;;;;;10747836;33;20029;-73
2023/07/21 19:10:40;;;;;;;1.27;0.80;;;28.50;81.70;;;;;;10749500;33;20326;-73
2023/07/21 19:16:42;;;;;;;1.48;0.88;;;28.40;82.10;;;;;;10750448;33;20041;-73
2023/07/21 19:22:44;;;;;;;1.20;0.70;;;28.30;82.10;;;;;;10750418;33;20394;-73
2023/07/21 19:28:46;;;;;;;4.93;0.80;;;28.40;82.20;;;;;;10749658;33;20055;-72
2023/07/21 19:34:48;;;;;;;1.25;0.73;;;28.40;82.00;;;;;;10750156;33;20398;-73
2023/07/21 19:40:50;;;;;;;1.02;0.70;;;28.30;82.00;;;;;;10750080;33;20322;-72
2023/07/21 19:46:52;;;;;;;1.00;0.62;;;28.30;82.00;;;;;;10749945;33;20028;-73
2023/07/21 19:52:54;;;;;;;1.80;0.98;;;28.30;82.00;;;;;;10749891;33;20035;-72
2023/07/21 19:58:58;;;;;;;1.62;1.00;;;28.20;82.10;;;;;;10753818;33;20464;-72
2023/07/21 20:05:00;;;;;;;1.42;0.85;;;28.20;82.10;;;;;;10755036;33;20430;-72
2023/07/21 20:11:05;;;;;;;0.85;0.65;;;28.10;82.00;;;;;;10754653;33;20031;-72
2023/07/21 20:17:07;;;;;;;1.45;0.88;;;28.00;82.00;;;;;;10755397;33;20055;-72
2023/07/21 20:23:09;;;;;;;0.45;0.40;;;28.00;82.10;;;;;;10755227;33;20013;-72
2023/07/21 20:29:11;;;;;;;4.15;0.88;;;27.90;82.70;;;;;;10750253;33;20013;-72
2023/07/21 20:35:13;;;;;;;0.95;0.80;;;27.90;82.90;;;;;;10754758;33;20021;-72
2023/07/21 20:41:16;;;;;;;1.23;0.70;;;27.90;82.50;;;;;;10754938;33;20032;-72
2023/07/21 20:47:45;;;;;;;1.85;0.82;;;27.90;82.50;;;;;;10754608;33;20341;-72
2023/07/21 20:53:49;;;;;;;1.15;0.60;;;27.90;82.60;;;;;;10719249;33;20104;-72
2023/07/21 20:59:51;;;;;;;1.67;1.05;;;27.90;82.70;;;;;;10717831;33;20028;-72
2023/07/21 21:05:58;;;;;;;2.15;1.10;;;27.90;82.90;;;;;;10717642;33;20017;-72
2023/07/21 21:12:00;;;;;;;2.33;0.90;;;27.90;82.20;;;;;;10717544;33;20389;-72
2023/07/21 21:18:02;;;;;;;3.80;1.25;;;27.80;82.50;;;;;;10717446;33;20331;-72
2023/07/21 21:24:04;;;;;;;1.15;0.65;;;27.80;82.60;;;;;;10711105;33;20052;-72
2023/07/21 21:30:08;;;;;;;1.35;0.90;;;27.70;82.50;;;;;;10680736;33;20056;-72
2023/07/21 21:36:17;;;;;;;1.75;0.82;;;27.60;82.50;;;;;;10680838;33;20081;-72
2023/07/21 21:42:19;;;;;;;1.33;0.98;;;27.60;82.30;;;;;;10679720;33;20355;-72
2023/07/21 21:48:22;;;;;;;2.05;1.20;;;27.60;83.00;;;;;;10680267;33;20048;-72
2023/07/21 21:54:23;;;;;;;1.62;1.02;;;27.60;83.10;;;;;;10680209;33;20120;-72
2023/07/21 22:00:26;;;;;;;1.08;0.88;;;27.60;83.20;;;;;;10678345;33;20014;-72
2023/07/21 22:06:49;;;;;;;6.07;1.25;;;27.50;83.60;;;;;;10682702;33;20029;-72
2023/07/21 22:12:51;;;;;;;3.30;1.17;;;27.40;84.00;;;;;;10679874;33;20014;-73
2023/07/21 22:18:53;;;;;;;3.12;1.77;;;27.30;84.20;;;;;;10679191;33;20021;-73
2023/07/21 22:24:56;;;;;;;3.35;1.60;;;27.30;84.10;;;;;;10679534;33;20036;-71
2023/07/21 22:30:57;;;;;;;3.83;2.15;;;27.10;83.40;;;;;;10679473;32;20069;-72
2023/07/21 22:37:33;;;;;;;11.02;2.40;;;26.70;80.80;;;;;;10679288;33;20021;-72
2023/07/21 22:43:35;;;;;;;7.50;3.67;;;26.40;81.30;;;;;;10677313;33;20025;-72
2023/07/21 22:49:38;;;;;;;7.50;4.20;;;26.50;81.30;;;;;;10679021;33;20045;-71
2023/07/21 22:55:40;;;;;;;3.67;1.85;;;26.00;80.90;;;;;;10678772;33;20399;-71
2023/07/21 23:01:42;;;;;;;3.85;2.53;;;25.80;81.60;;;;;;10678584;33;20018;-71
2023/07/21 23:07:46;;;;;;;2.95;1.73;;;25.80;82.00;;;;;;10678520;33;20021;-72
2023/07/21 23:13:47;;;;;;;4.55;1.62;;;25.90;82.30;;;;;;10678385;33;20061;-72
2023/07/21 23:19:49;;;;;;;2.65;1.23;;;26.00;82.50;;;;;;10678448;33;20013;-72
2023/07/21 23:25:56;;;;;;;5.07;2.40;;;26.10;82.80;;;;;;10678042;33;20037;-72
2023/07/21 23:31:58;;;;;;;3.58;2.42;;;26.10;82.80;;;;;;10680158;33;20044;-72
2023/07/21 23:38:00;;;;;;;2.08;1.30;;;26.10;83.10;;;;;;10684097;33;20021;-72
2023/07/21 23:44:02;;;;;;;3.37;1.25;;;26.10;83.00;;;;;;10683114;33;20033;-72
2023/07/21 23:50:04;;;;;;;3.37;1.67;;;26.10;82.90;;;;;;10683872;33;20040;-72
2023/07/21 23:56:06;;;;;;;2.92;1.12;;;26.30;82.90;;;;;;10683720;33;20331;-72
